createdAt,value
2023-01-21T00:01:25.239Z,95.90
2023-01-21T00:03:55.722Z,95.93
2023-01-21T00:06:27.267Z,96.02
2023-01-21T00:08:57.669Z,96.04
2023-01-21T00:11:26.279Z,96.23
2023-01-21T00:13:57.518Z,96.07
2023-01-21T00:16:25.073Z,96.24
2023-01-21T00:18:52.286Z,96.15
2023-01-21T00:21:19.589Z,96.30
2023-01-21T00:23:49.617Z,96.50
2023-01-21T00:26:18.605Z,96.36
2023-01-21T00:28:50.792Z,96.29
2023-01-21T00:31:19.204Z,96.26
2023-01-21T00:33:49.074Z,96.37
2023-01-21T00:36:30.339Z,96.47
2023-01-21T00:38:59.265Z,96.31
2023-01-21T00:41:26.471Z,96.27
2023-01-21T00:43:54.436Z,96.27
2023-01-21T00:46:21.405Z,96.32
2023-01-21T00:48:49.208Z,96.63
2023-01-21T00:51:18.908Z,96.63
2023-01-21T00:53:50.296Z,96.60
2023-01-21T00:56:17.726Z,96.50
2023-01-21T00:58:45.982Z,96.42
2023-01-21T01:01:15.471Z,96.48
2023-01-21T01:03:42.915Z,96.46
2023-01-21T01:06:21.248Z,96.55
2023-01-21T01:08:52.910Z,96.69
2023-01-21T01:11:27.616Z,96.63
2023-01-21T01:13:57.835Z,96.65
2023-01-21T01:16:27.132Z,96.44
2023-01-21T01:18:55.104Z,96.47
2023-01-21T01:21:24.232Z,96.39
2023-01-21T01:23:53.303Z,96.44
2023-01-21T01:26:25.233Z,96.56
2023-01-21T01:29:00.004Z,96.69
2023-01-21T01:31:27.424Z,96.51
2023-01-21T01:33:56.198Z,96.46
2023-01-21T01:36:27.712Z,96.40
2023-01-21T01:38:59.218Z,96.45
2023-01-21T01:41:30.795Z,96.41
2023-01-21T01:44:06.918Z,96.51
2023-01-21T01:46:37.737Z,96.53
2023-01-21T01:49:19.214Z,96.36
2023-01-21T01:51:54.789Z,96.17
2023-01-21T01:54:28.387Z,96.17
2023-01-21T01:56:57.588Z,96.23
2023-01-21T01:59:26.653Z,96.31
2023-01-21T02:02:07.046Z,96.11
2023-01-21T02:04:43.001Z,96.10
2023-01-21T02:07:10.016Z,96.21
2023-01-21T02:09:49.231Z,96.12
2023-01-21T02:12:20.165Z,96.12
2023-01-21T02:14:48.969Z,96.13
2023-01-21T02:18:11.053Z,96.16
2023-01-21T02:21:05.860Z,96.19
2023-01-21T02:23:54.988Z,95.98
2023-01-21T02:26:56.150Z,95.63
2023-01-21T02:29:46.824Z,95.55
2023-01-21T02:32:16.711Z,95.37
2023-01-21T02:35:36.452Z,95.31
2023-01-21T02:38:34.862Z,95.33
2023-01-21T02:41:23.172Z,95.30
2023-01-21T02:44:01.170Z,95.20
2023-01-21T02:46:54.656Z,95.14
2023-01-21T02:49:41.633Z,95.17
2023-01-21T02:52:12.021Z,95.12
2023-01-21T02:54:51.161Z,95.19
2023-01-21T02:57:29.810Z,95.23
2023-01-21T03:00:00.521Z,95.34
2023-01-21T03:02:39.575Z,95.02
2023-01-21T03:05:33.194Z,95.28
2023-01-21T03:08:16.368Z,95.50
2023-01-21T03:11:29.859Z,95.31
2023-01-21T03:14:37.323Z,95.32
2023-01-21T03:17:39.137Z,95.40
2023-01-21T03:20:42.543Z,95.33
2023-01-21T03:23:38.259Z,95.17
2023-01-21T03:26:08.510Z,95.02
2023-01-21T03:28:45.352Z,94.85
2023-01-21T03:31:20.725Z,94.92
2023-01-21T03:33:53.084Z,94.82
2023-01-21T03:36:58.670Z,94.66
2023-01-21T03:39:48.228Z,94.73
2023-01-21T03:42:18.306Z,94.58
2023-01-21T03:44:51.465Z,94.42
2023-01-21T03:47:31.549Z,94.25
2023-01-21T03:52:54.400Z,93.83
2023-01-21T03:55:26.090Z,93.72
2023-01-21T03:57:55.067Z,93.45
2023-01-21T04:00:22.299Z,93.45
2023-01-21T04:02:53.525Z,93.33
2023-01-21T04:05:21.164Z,93.18
2023-01-21T04:07:53.914Z,93.30
2023-01-21T04:10:25.423Z,93.17
2023-01-21T04:12:59.468Z,93.02
2023-01-21T04:15:28.603Z,92.84
2023-01-21T04:18:04.214Z,92.65
2023-01-21T04:20:32.056Z,92.34
2023-01-21T04:23:10.357Z,92.17
2023-01-21T04:25:37.961Z,92.22
2023-01-21T04:28:15.126Z,92.22
2023-01-21T04:30:47.836Z,92.18
2023-01-21T04:33:17.338Z,92.20
2023-01-21T04:35:50.287Z,92.12
2023-01-21T04:38:19.897Z,92.10
2023-01-21T04:40:51.369Z,92.20
2023-01-21T04:43:22.122Z,92.33
2023-01-21T04:45:51.801Z,92.30
2023-01-21T04:48:23.156Z,92.51
2023-01-21T04:50:52.302Z,92.45
2023-01-21T04:53:21.591Z,92.29
2023-01-21T04:55:51.560Z,92.31
2023-01-21T04:58:21.509Z,92.30
2023-01-21T05:00:52.606Z,92.32
2023-01-21T05:03:22.307Z,92.44
2023-01-21T05:05:50.832Z,92.47
2023-01-21T05:08:19.694Z,92.33
2023-01-21T05:10:47.157Z,92.37
2023-01-21T05:13:19.201Z,92.51
2023-01-21T05:15:49.138Z,92.35
2023-01-21T05:18:18.680Z,92.33
2023-01-21T05:20:47.237Z,92.33
2023-01-21T05:23:16.722Z,92.19
2023-01-21T05:25:52.473Z,92.10
2023-01-21T05:28:21.461Z,92.15
2023-01-21T05:30:49.388Z,92.34
2023-01-21T05:33:16.891Z,92.30
2023-01-21T05:35:50.134Z,92.32
2023-01-21T05:38:17.675Z,92.24
2023-01-21T05:41:18.683Z,92.00
2023-01-21T05:44:07.377Z,91.69
2023-01-21T05:46:34.396Z,91.81
2023-01-21T05:49:03.377Z,91.82
2023-01-21T05:51:38.717Z,91.79
2023-01-21T05:54:06.255Z,91.60
2023-01-21T05:56:36.704Z,91.62
2023-01-21T05:59:03.678Z,91.56
2023-01-21T06:01:33.914Z,91.70
2023-01-21T06:04:03.759Z,91.45
2023-01-21T06:06:34.133Z,91.50
2023-01-21T06:09:03.722Z,91.53
2023-01-21T06:11:33.145Z,91.52
2023-01-21T06:14:03.908Z,91.47
2023-01-21T06:16:39.931Z,91.46
2023-01-21T06:19:12.226Z,91.62
2023-01-21T06:21:39.538Z,91.62
2023-01-21T06:24:07.115Z,91.65
2023-01-21T06:26:35.035Z,91.65
2023-01-21T06:29:06.353Z,91.48
2023-01-21T06:31:35.200Z,91.51
2023-01-21T06:34:03.048Z,91.66
2023-01-21T06:36:32.946Z,91.57
2023-01-21T06:39:04.257Z,91.51
2023-01-21T06:41:58.423Z,91.57
2023-01-21T06:44:26.078Z,91.64
2023-01-21T06:47:00.723Z,91.65
2023-01-21T06:49:30.297Z,91.87
2023-01-21T06:51:59.246Z,91.82
2023-01-21T06:54:29.349Z,91.95
2023-01-21T06:56:59.378Z,91.99
2023-01-21T06:59:33.135Z,91.85
2023-01-21T07:02:05.179Z,91.72
2023-01-21T07:04:33.994Z,91.58
2023-01-21T07:07:02.045Z,91.56
2023-01-21T07:09:34.651Z,91.36
2023-01-21T07:12:05.892Z,91.28
2023-01-21T07:14:34.157Z,91.38
2023-01-21T07:17:08.269Z,91.32
2023-01-21T07:19:35.565Z,91.55
2023-01-21T07:22:08.710Z,91.59
2023-01-21T07:24:44.171Z,91.44
2023-01-21T07:27:14.197Z,91.25
2023-01-21T07:29:47.013Z,91.17
2023-01-21T07:32:17.141Z,91.11
2023-01-21T07:34:45.862Z,90.92
2023-01-21T07:37:15.708Z,90.90
2023-01-21T07:39:47.020Z,90.78
2023-01-21T07:42:14.479Z,90.90
2023-01-21T07:44:47.381Z,90.64
2023-01-21T07:47:24.441Z,90.56
2023-01-21T07:49:54.729Z,90.78
2023-01-21T07:52:26.885Z,90.80
2023-01-21T07:55:01.587Z,90.80
2023-01-21T07:57:35.115Z,90.85
2023-01-21T08:00:13.896Z,90.93
2023-01-21T08:02:45.515Z,91.17
2023-01-21T08:05:13.596Z,90.96
2023-01-21T08:07:40.539Z,90.85
2023-01-21T08:10:10.935Z,91.04
2023-01-21T08:12:42.491Z,91.02
2023-01-21T08:15:12.293Z,91.23
2023-01-21T08:17:42.913Z,91.38
2023-01-21T08:20:14.892Z,91.53
2023-01-21T08:22:44.249Z,91.67
2023-01-21T08:25:11.891Z,91.62
2023-01-21T08:32:12.657Z,91.78
2023-01-21T08:34:41.473Z,91.89
2023-01-21T08:37:12.809Z,91.91
2023-01-21T08:39:46.744Z,91.77
2023-01-21T08:42:30.889Z,92.00
2023-01-21T08:49:27.029Z,92.27
2023-01-21T08:51:59.271Z,92.17
2023-01-21T08:54:31.882Z,92.29
2023-01-21T08:57:05.864Z,92.50
2023-01-21T08:59:35.511Z,92.71
2023-01-21T09:02:05.094Z,92.70
2023-01-21T09:04:34.690Z,92.84
2023-01-21T09:07:04.204Z,92.98
2023-01-21T09:09:36.806Z,92.96
2023-01-21T09:12:07.539Z,92.96
2023-01-21T09:14:35.844Z,92.86
2023-01-21T09:17:03.160Z,93.10
2023-01-21T09:19:43.706Z,93.05
2023-01-21T09:22:15.617Z,93.07
2023-01-21T09:24:46.339Z,93.14
2023-01-21T09:27:15.423Z,93.36
2023-01-21T09:29:50.625Z,93.54
2023-01-21T09:32:20.806Z,93.59
2023-01-21T09:34:51.904Z,93.55
2023-01-21T09:37:19.483Z,93.69
2023-01-21T09:39:49.183Z,93.71
2023-01-21T09:42:21.988Z,93.87
2023-01-21T09:44:54.959Z,94.02
2023-01-21T09:47:35.779Z,93.80
2023-01-21T14:07:03.648Z,100.00
2023-01-21T14:09:52.799Z,100.00
2023-01-21T14:12:44.705Z,100.00
2023-01-21T14:15:33.645Z,100.00
2023-01-21T14:18:36.486Z,100.00
2023-01-21T14:21:30.534Z,100.00
2023-01-21T14:24:35.693Z,100.00
2023-01-21T14:27:16.392Z,100.00
2023-01-21T14:30:23.331Z,100.00
2023-01-21T14:32:56.030Z,100.00
2023-01-21T14:35:42.479Z,100.00
2023-01-21T14:38:13.706Z,100.00
2023-01-21T14:40:53.981Z,100.00
2023-01-21T14:43:53.498Z,100.00
2023-01-21T14:46:23.902Z,100.00
2023-01-21T14:49:17.074Z,100.00
2023-01-21T14:57:13.631Z,100.00
2023-01-21T14:59:46.668Z,100.00
2023-01-21T15:02:41.414Z,100.00
2023-01-21T15:05:31.604Z,100.00
2023-01-21T15:08:46.797Z,100.00
2023-01-21T15:11:43.481Z,100.00
2023-01-21T15:14:28.199Z,100.00
2023-01-21T15:16:58.160Z,100.00
2023-01-21T15:19:34.152Z,100.00
2023-01-21T15:22:23.547Z,100.00
2023-01-21T15:25:01.583Z,100.00
2023-01-21T15:27:29.363Z,100.00
2023-01-21T15:30:01.670Z,100.00
2023-01-21T15:32:32.417Z,100.00
2023-01-21T15:35:04.434Z,100.00
2023-01-21T15:37:33.695Z,100.00
2023-01-21T15:40:05.607Z,100.00
2023-01-21T15:43:27.416Z,100.00
2023-01-21T15:46:34.626Z,100.00
2023-01-21T15:49:21.377Z,100.00
2023-01-21T15:52:15.815Z,100.00
2023-01-21T15:55:30.153Z,100.00
2023-01-21T15:58:04.899Z,100.00
2023-01-21T16:00:56.479Z,100.00
2023-01-21T16:03:41.159Z,100.00
2023-01-21T16:06:31.515Z,100.00
2023-01-21T16:09:14.810Z,100.00
2023-01-21T16:12:10.110Z,100.00
2023-01-21T16:15:03.140Z,100.00
2023-01-21T16:18:02.413Z,100.00
2023-01-21T16:20:31.748Z,100.00
2023-01-21T16:23:00.960Z,100.00
2023-01-21T16:25:31.894Z,100.00
2023-01-21T16:28:01.322Z,100.00
2023-01-21T16:30:33.864Z,100.00
2023-01-21T16:33:12.418Z,100.00
2023-01-21T16:35:58.742Z,100.00
2023-01-21T16:38:31.093Z,100.00
2023-01-21T16:41:19.568Z,100.00
2023-01-21T16:44:02.971Z,100.00
2023-01-21T16:46:39.515Z,100.00
2023-01-21T16:49:18.217Z,100.00
2023-01-21T16:52:13.193Z,100.00
2023-01-21T16:54:47.847Z,100.00
2023-01-21T16:57:19.179Z,100.00
2023-01-21T16:59:57.850Z,100.00
2023-01-21T17:02:31.968Z,100.00
2023-01-21T17:05:05.591Z,100.00
2023-01-21T17:07:44.111Z,100.00
2023-01-21T17:10:34.276Z,100.00
2023-01-21T17:13:08.691Z,100.00
2023-01-21T17:15:40.972Z,100.00
2023-01-21T17:18:10.833Z,100.00
2023-01-21T17:20:45.987Z,100.00
2023-01-21T17:23:20.823Z,100.00
2023-01-21T17:26:07.579Z,100.00
2023-01-21T17:28:41.182Z,100.00
2023-01-21T17:31:17.572Z,100.00
2023-01-21T17:33:45.653Z,100.00
2023-01-21T17:36:22.643Z,100.00
2023-01-21T17:38:54.714Z,100.00
2023-01-21T17:41:41.611Z,100.00
2023-01-21T17:44:27.288Z,100.00
2023-01-21T17:46:57.115Z,100.00
2023-01-21T17:49:25.702Z,100.00
2023-01-21T17:51:54.463Z,100.00
2023-01-21T21:28:07.937Z,100.00
2023-01-21T21:30:42.855Z,100.00
2023-01-21T21:33:17.614Z,100.00
2023-01-21T21:35:47.580Z,100.00
2023-01-21T21:38:17.977Z,100.00
2023-01-21T21:40:47.572Z,100.00
